Impacts METAR Board
IDs:

KMSP - Minneapolis-St Paul, MN, US

Updated at: 0100 UTC 31 May 2020
Potential Impact None Slight Moderate High
Time 30/13Z 30/14Z 30/15Z 30/16Z 30/17Z 30/18Z 30/19Z 30/20Z 30/21Z 30/22Z 30/23Z 31/00Z 31/01Z
Temp55 57 60 61 62 65 66 66 67 67 68 67 64
Dewpt43 42 42 43 40 39 34 32 31 29 30 31 28
Altim30.28 30.29 30.29 30.29 30.28 30.28 30.26 30.26 30.25 30.25 30.24 30.24 30.24
VIS10 10 10 10 10 10 10 10 10 10 10 10 10
CIG-- -- -- -- -- -- -- -- -- -- -- -- --
CoverFEWFEWFEWSCTFEWFEWFEWFEWCLRCLRCLRCLRCLR
FltCatVFRVFRVFRVFRVFRVFRVFRVFRVFRVFRVFRVFRVFR
WX--------------------------
WDir10103603403503103303401035035035030
WSpd8 7 8 9 11 7 9 8 5 8 5 4 5
WGst-- -- -- 15 -- 16 16 -- -- 14 -- -- --
Raw hourly METARs
KMSP 301253Z 01008KT 10SM FEW010 13/06 A3028 RMK AO2 SLP255 FU PLUMES SW-N T01280061
KMSP 301353Z 01007KT 10SM FEW010 14/06 A3029 RMK AO2 SLP259 T01390056
KMSP 301453Z 36008KT 10SM FEW035 16/06 A3029 RMK AO2 SLP259 T01560056 51009
KMSP 301553Z 34009G15KT 10SM FEW048 SCT055 16/06 A3029 RMK AO2 SLP256 T01610061
KMSP 301653Z 35011KT 10SM FEW050 17/04 A3028 RMK AO2 SLP256 T01670044
KMSP 301753Z 31007G16KT 10SM FEW055 18/04 A3028 RMK AO2 SLP253 T01830039 10183 20117 58006
KMSP 301853Z 33009G16KT 10SM FEW055 19/01 A3026 RMK AO2 SLP249 T01890011
KMSP 301953Z 34008KT 10SM FEW055 19/00 A3026 RMK AO2 SLP248 T01890000
KMSP 302053Z COR 01005KT 10SM CLR 19/M01 A3025 RMK AO2 SLP246 T01941006 56007
KMSP 302153Z 35008G14KT 10SM CLR 19/M02 A3025 RMK AO2 SLP244 T01941017
KMSP 302253Z 35005KT 10SM CLR 20/M01 A3024 RMK AO2 SLP241 T02001011
KMSP 302353Z 35004KT 10SM CLR 19/M01 A3024 RMK AO2 SLP240 T01941006 10200 20178 56006
KMSP 310053Z 03005KT 10SM CLR 18/M02 A3024 RMK AO2 SLP239 T01781022



Page loaded:  01:12 UTC  |   06:12 PM Pacific  |   07:12 PM Mountain  |   08:12 PM Central  |   09:12 PM Eastern

 

ADVISORIES

FORECASTS

FORECASTS

OBSERVATIONS

USER TOOLS

ABOUT US